createdAt,value
2019-03-03T00:01:50.255Z,3.47
2019-03-03T00:04:19.762Z,5.40
2019-03-03T00:06:49.326Z,3.95
2019-03-03T00:09:18.918Z,3.37
2019-03-03T00:11:48.398Z,4.47
2019-03-03T00:14:17.951Z,4.60
2019-03-03T00:16:47.434Z,7.70
2019-03-03T00:19:16.905Z,3.33
2019-03-03T00:21:46.419Z,3.22
2019-03-03T00:24:15.929Z,3.65
2019-03-03T00:26:45.416Z,3.37
2019-03-03T00:29:16.981Z,3.25
2019-03-03T00:31:46.163Z,3.02
2019-03-03T00:34:15.693Z,3.60
2019-03-03T00:37:04.381Z,5.70
2019-03-03T00:40:11.221Z,4.42
2019-03-03T00:42:45.618Z,3.40
2019-03-03T00:45:32.727Z,3.02
2019-03-03T00:48:13.685Z,2.08
2019-03-03T00:50:56.315Z,3.42
2019-03-03T00:53:48.088Z,3.85
2019-03-03T00:56:48.606Z,2.80
2019-03-03T00:59:35.664Z,4.25
2019-03-03T01:02:27.201Z,3.17
2019-03-03T01:05:29.833Z,3.37
2019-03-03T01:08:25.664Z,4.12
2019-03-03T01:11:14.061Z,3.45
2019-03-03T01:14:05.444Z,2.60
2019-03-03T01:16:53.918Z,2.75
2019-03-03T01:19:40.694Z,3.58
2019-03-03T01:22:34.795Z,3.75
2019-03-03T01:25:04.727Z,2.95
2019-03-03T01:27:34.191Z,6.20
2019-03-03T01:30:04.556Z,5.45
2019-03-03T01:32:34.120Z,5.30
2019-03-03T01:35:03.606Z,6.25
2019-03-03T01:37:33.153Z,4.25
2019-03-03T01:40:02.616Z,3.58
2019-03-03T01:42:32.129Z,3.72
2019-03-03T01:45:01.653Z,2.60
2019-03-03T01:47:31.119Z,4.37
2019-03-03T01:50:00.579Z,4.40
2019-03-03T01:52:30.133Z,6.00
2019-03-03T01:54:59.602Z,4.97
2019-03-03T01:57:29.193Z,2.70
2019-03-03T01:59:58.735Z,3.58
2019-03-03T02:02:28.343Z,3.60
2019-03-03T02:04:57.916Z,3.02
2019-03-03T02:07:27.475Z,3.62
2019-03-03T02:09:56.936Z,3.55
2019-03-03T02:12:26.419Z,3.27
2019-03-03T02:14:55.892Z,4.80
2019-03-03T02:17:25.471Z,3.02
2019-03-03T02:19:55.043Z,1.95
2019-03-03T02:22:25.247Z,3.17
2019-03-03T02:24:54.814Z,4.45
2019-03-03T02:27:24.404Z,3.15
2019-03-03T02:29:53.875Z,3.17
2019-03-03T02:32:23.351Z,3.05
2019-03-03T02:34:52.861Z,3.75
2019-03-03T02:37:22.333Z,2.60
2019-03-03T02:39:52.068Z,3.40
2019-03-03T02:42:21.554Z,3.10
2019-03-03T02:44:51.829Z,5.00
2019-03-03T02:47:21.333Z,2.10
2019-03-03T02:49:50.870Z,4.15
2019-03-03T02:52:20.339Z,3.62
2019-03-03T02:54:49.810Z,4.20
2019-03-03T02:57:19.341Z,2.30
2019-03-03T02:59:48.819Z,2.70
2019-03-03T03:02:43.648Z,4.20
2019-03-03T03:05:14.963Z,4.45
2019-03-03T03:08:05.991Z,3.92
2019-03-03T03:10:58.405Z,4.22
2019-03-03T03:13:54.158Z,2.58
2019-03-03T03:16:54.609Z,3.42
2019-03-03T03:19:46.012Z,3.35
2019-03-03T03:22:26.039Z,2.67
2019-03-03T03:25:14.491Z,2.25
2019-03-03T03:27:55.637Z,2.37
2019-03-03T03:30:37.538Z,3.05
2019-03-03T03:33:21.650Z,3.22
2019-03-03T03:36:02.722Z,2.33
2019-03-03T03:38:50.985Z,2.70
2019-03-03T03:41:37.594Z,1.90
2019-03-03T03:44:28.977Z,3.30
2019-03-03T03:47:20.393Z,3.08
2019-03-03T03:50:08.715Z,4.28
2019-03-03T03:52:56.157Z,2.15
2019-03-03T03:55:39.493Z,2.62
2019-03-03T03:58:26.877Z,2.60
2019-03-03T04:01:04.674Z,2.52
2019-03-03T04:03:58.947Z,3.42
2019-03-03T04:06:41.901Z,2.12
2019-03-03T04:09:32.843Z,1.98
2019-03-03T04:12:24.037Z,1.90
2019-03-03T04:15:18.562Z,1.55
2019-03-03T04:18:19.352Z,1.90
2019-03-03T04:21:13.894Z,2.83
2019-03-03T04:24:02.260Z,2.02
2019-03-03T04:27:08.852Z,3.70
2019-03-03T04:30:00.386Z,1.98
2019-03-03T04:32:51.453Z,2.65
2019-03-03T04:35:39.808Z,2.22
2019-03-03T04:38:34.284Z,1.98
2019-03-03T04:41:15.143Z,2.87
2019-03-03T04:44:03.674Z,1.62
2019-03-03T04:46:52.640Z,1.90
2019-03-03T04:49:41.084Z,2.37
2019-03-03T04:52:32.109Z,1.77
2019-03-03T04:55:32.961Z,1.82
2019-03-03T04:58:30.029Z,2.05
2019-03-03T05:01:24.632Z,2.15
2019-03-03T05:04:15.582Z,1.65
2019-03-03T05:07:00.795Z,1.52
2019-03-03T05:09:56.902Z,2.37
2019-03-03T05:12:45.369Z,2.12
2019-03-03T05:15:33.831Z,1.80
2019-03-03T05:18:17.622Z,4.10
2019-03-03T05:20:49.083Z,1.70
2019-03-03T05:23:18.717Z,2.77
2019-03-03T05:25:48.988Z,2.85
2019-03-03T05:28:18.509Z,3.45
2019-03-03T05:30:49.275Z,1.92
2019-03-03T05:33:18.775Z,2.02
2019-03-03T05:35:48.359Z,3.08
2019-03-03T05:38:17.910Z,2.55
2019-03-03T05:40:47.421Z,3.83
2019-03-03T05:43:17.083Z,2.05
2019-03-03T05:45:46.589Z,2.25
2019-03-03T05:48:16.108Z,1.75
2019-03-03T05:50:45.573Z,1.85
2019-03-03T05:53:15.099Z,2.98
2019-03-03T05:55:44.583Z,1.90
2019-03-03T05:58:14.178Z,2.30
2019-03-03T06:00:43.707Z,2.10
2019-03-03T06:03:13.487Z,2.12
2019-03-03T06:05:42.939Z,1.55
2019-03-03T06:08:12.482Z,1.35
2019-03-03T06:10:41.958Z,2.40
2019-03-03T06:13:11.444Z,1.45
2019-03-03T06:15:40.968Z,1.60
2019-03-03T06:18:10.471Z,2.37
2019-03-03T06:20:39.949Z,1.60
2019-03-03T06:23:09.436Z,1.80
2019-03-03T06:25:38.913Z,1.92
2019-03-03T06:28:08.575Z,1.30
2019-03-03T06:30:38.036Z,1.50
2019-03-03T06:33:07.691Z,2.35
2019-03-03T06:35:37.218Z,2.00
2019-03-03T06:38:06.962Z,2.25
2019-03-03T06:40:36.428Z,1.30
2019-03-03T06:43:05.931Z,1.87
2019-03-03T06:45:35.425Z,1.55
2019-03-03T06:48:04.927Z,1.82
2019-03-03T06:50:34.474Z,2.37
2019-03-03T06:53:04.043Z,2.55
2019-03-03T06:55:33.607Z,1.90
2019-03-03T06:58:03.188Z,1.22
2019-03-03T07:00:32.690Z,2.20
2019-03-03T07:03:02.304Z,1.25
2019-03-03T07:05:31.822Z,2.25
2019-03-03T07:08:02.195Z,2.83
2019-03-03T07:10:31.666Z,1.92
2019-03-03T07:13:01.177Z,2.67
2019-03-03T07:15:30.635Z,2.12
2019-03-03T07:18:00.117Z,2.70
2019-03-03T07:20:29.710Z,2.15
2019-03-03T07:22:59.183Z,1.40
2019-03-03T07:25:28.677Z,2.45
2019-03-03T07:27:58.226Z,1.62
2019-03-03T07:30:27.691Z,2.15
2019-03-03T07:33:15.220Z,1.90
2019-03-03T07:35:44.739Z,2.30
2019-03-03T07:38:14.234Z,2.80
2019-03-03T07:40:43.713Z,1.62
2019-03-03T07:43:13.284Z,1.90
2019-03-03T07:45:43.283Z,1.50
2019-03-03T07:48:12.757Z,1.30
2019-03-03T07:50:42.370Z,1.75
2019-03-03T07:53:11.860Z,1.90
2019-03-03T07:55:41.383Z,2.10
2019-03-03T07:58:10.875Z,1.98
2019-03-03T08:00:40.419Z,2.90
2019-03-03T08:03:09.876Z,1.45
2019-03-03T08:05:39.452Z,1.82
2019-03-03T08:08:08.937Z,1.22
2019-03-03T08:10:38.501Z,1.40
2019-03-03T08:13:09.474Z,2.22
2019-03-03T08:15:39.457Z,1.92
2019-03-03T08:18:08.957Z,2.45
2019-03-03T08:20:38.596Z,1.70
2019-03-03T08:23:08.264Z,1.70
2019-03-03T08:25:37.754Z,1.60
2019-03-03T08:28:07.346Z,1.95
2019-03-03T08:30:36.849Z,1.20
2019-03-03T08:33:06.364Z,2.10
2019-03-03T08:35:35.925Z,0.95
2019-03-03T08:38:05.554Z,2.10
2019-03-03T08:40:35.139Z,1.75
2019-03-03T08:43:12.315Z,2.77
2019-03-03T08:45:56.399Z,1.77
2019-03-03T08:48:47.845Z,1.90
2019-03-03T08:51:39.390Z,1.17
2019-03-03T08:54:30.719Z,1.20
2019-03-03T08:57:24.911Z,1.62
2019-03-03T09:00:01.247Z,3.45
2019-03-03T09:02:48.634Z,1.65
2019-03-03T09:05:46.373Z,1.47
2019-03-03T09:08:33.516Z,1.45
2019-03-03T09:11:10.631Z,1.70
2019-03-03T09:13:58.970Z,1.20
2019-03-03T09:16:49.556Z,1.00
2019-03-03T09:19:26.633Z,1.60
2019-03-03T09:22:24.401Z,2.27
2019-03-03T09:25:30.956Z,3.27
2019-03-03T09:28:28.440Z,1.10
2019-03-03T09:31:04.559Z,1.27
2019-03-03T09:33:51.844Z,2.35
2019-03-03T09:36:38.050Z,1.65
2019-03-03T09:39:33.736Z,1.20
2019-03-03T09:42:13.058Z,1.20
2019-03-03T09:45:01.627Z,1.40
2019-03-03T09:47:39.751Z,2.15
2019-03-03T09:50:16.858Z,3.50
2019-03-03T09:53:17.130Z,1.47
2019-03-03T09:56:00.064Z,3.00
2019-03-03T09:58:47.066Z,1.07
2019-03-03T10:01:22.369Z,1.47
2019-03-03T10:04:01.956Z,1.57
2019-03-03T10:06:53.248Z,1.67
2019-03-03T10:09:47.774Z,1.05
2019-03-03T10:12:32.865Z,1.65
2019-03-03T10:15:20.624Z,1.45
2019-03-03T10:18:05.710Z,1.90
2019-03-03T10:20:49.655Z,1.62
2019-03-03T10:23:50.445Z,2.90
2019-03-03T10:26:47.712Z,1.62
2019-03-03T10:29:54.366Z,2.67
2019-03-03T10:32:36.294Z,1.92
2019-03-03T10:35:28.816Z,1.47
2019-03-03T10:38:15.953Z,7.45
2019-03-03T10:41:07.483Z,3.15
2019-03-03T10:43:57.873Z,5.70
2019-03-03T10:46:37.475Z,3.12
2019-03-03T10:49:44.332Z,5.55
2019-03-03T10:52:20.968Z,3.87
2019-03-03T10:55:09.532Z,3.60
2019-03-03T10:57:53.609Z,1.92
2019-03-03T11:00:41.020Z,3.58
2019-03-03T11:03:23.586Z,1.57
2019-03-03T11:06:30.575Z,3.62
2019-03-03T11:09:16.168Z,1.95
2019-03-03T11:12:04.392Z,2.45
2019-03-03T11:14:51.556Z,2.00
2019-03-03T11:17:52.618Z,1.50
2019-03-03T11:20:43.854Z,4.87
2019-03-03T11:23:37.831Z,5.00
2019-03-03T11:26:32.888Z,4.08
2019-03-03T11:29:13.243Z,3.00
2019-03-03T11:32:01.901Z,7.00
2019-03-03T11:34:56.368Z,4.92
2019-03-03T11:37:44.825Z,4.05
2019-03-03T11:40:55.789Z,5.30
2019-03-03T11:43:47.274Z,4.80
2019-03-03T11:46:35.745Z,4.33
2019-03-03T11:49:27.352Z,4.30
2019-03-03T11:52:20.005Z,6.17
2019-03-03T11:54:55.242Z,4.92
2019-03-03T11:57:40.195Z,4.05
2019-03-03T12:00:20.761Z,9.00
2019-03-03T12:03:18.201Z,7.58
2019-03-03T12:06:06.296Z,6.12
2019-03-03T12:09:07.130Z,6.17
2019-03-03T12:11:58.678Z,14.35
2019-03-03T12:14:52.755Z,5.78
2019-03-03T12:17:28.995Z,12.28
2019-03-03T12:20:29.832Z,8.20
2019-03-03T12:23:13.012Z,7.37
2019-03-03T12:26:00.287Z,9.30
2019-03-03T12:28:47.201Z,9.83
2019-03-03T12:31:24.407Z,8.08
2019-03-03T12:34:09.022Z,9.53
2019-03-03T12:37:07.347Z,13.45
2019-03-03T12:39:45.453Z,8.43
2019-03-03T12:42:33.217Z,8.45
2019-03-03T12:45:23.228Z,7.67
2019-03-03T12:48:11.231Z,13.83
2019-03-03T12:50:58.592Z,7.92
2019-03-03T12:53:56.006Z,6.37
2019-03-03T12:56:44.780Z,8.55
2019-03-03T12:59:36.420Z,6.53
2019-03-03T13:02:28.103Z,14.25
2019-03-03T13:05:15.835Z,8.05
2019-03-03T13:08:13.358Z,9.13
2019-03-03T13:10:58.393Z,10.53
2019-03-03T13:13:41.641Z,9.08
2019-03-03T13:16:36.252Z,6.28
2019-03-03T13:19:21.487Z,9.88
2019-03-03T13:22:13.121Z,10.05
2019-03-03T13:24:53.076Z,8.28
2019-03-03T13:27:29.246Z,7.05
2019-03-03T13:30:13.433Z,4.00
2019-03-03T13:33:02.122Z,7.62
2019-03-03T13:35:53.591Z,6.20
2019-03-03T13:38:48.422Z,6.85
2019-03-03T13:41:40.023Z,6.92
2019-03-03T13:44:10.310Z,7.15
2019-03-03T13:46:40.022Z,5.42
2019-03-03T13:49:09.788Z,6.53
2019-03-03T13:51:39.899Z,5.95
2019-03-03T13:54:09.629Z,8.03
2019-03-03T13:56:39.216Z,5.83
2019-03-03T13:59:08.911Z,6.40
2019-03-03T14:01:38.567Z,5.37
2019-03-03T14:04:08.493Z,4.65
2019-03-03T14:06:38.428Z,7.50
2019-03-03T14:09:10.263Z,5.67
2019-03-03T14:11:40.771Z,6.17
2019-03-03T14:14:10.491Z,4.45
2019-03-03T14:16:40.009Z,4.75
2019-03-03T14:19:09.749Z,4.58
2019-03-03T14:21:39.363Z,5.22
2019-03-03T14:24:09.363Z,4.78
2019-03-03T14:26:39.038Z,5.03
2019-03-03T14:29:08.704Z,3.72
2019-03-03T14:31:39.720Z,6.03
2019-03-03T14:34:09.281Z,8.95
2019-03-03T14:36:38.850Z,6.03
2019-03-03T14:39:08.758Z,4.37
2019-03-03T14:41:38.885Z,6.47
2019-03-03T14:44:08.761Z,3.67
2019-03-03T14:46:38.567Z,4.33
2019-03-03T14:49:08.491Z,4.72
2019-03-03T14:51:38.505Z,3.80
2019-03-03T14:54:08.371Z,4.10
2019-03-03T14:56:37.954Z,3.70
2019-03-03T14:59:07.680Z,5.80
2019-03-03T15:01:37.256Z,3.37
2019-03-03T15:04:06.758Z,2.45
2019-03-03T15:06:36.279Z,4.35
2019-03-03T15:09:15.585Z,3.22
2019-03-03T15:11:45.151Z,3.58
2019-03-03T15:14:14.746Z,3.98
2019-03-03T15:16:44.248Z,3.98
2019-03-03T15:19:13.849Z,4.28
2019-03-03T15:21:43.394Z,3.87
2019-03-03T15:24:13.264Z,3.95
2019-03-03T15:26:42.769Z,6.25
2019-03-03T15:29:12.984Z,4.00
2019-03-03T15:31:42.587Z,4.00
2019-03-03T15:34:13.217Z,5.05
2019-03-03T15:36:42.919Z,3.42
2019-03-03T15:39:13.046Z,2.95
2019-03-03T15:41:43.075Z,4.08
2019-03-03T15:44:12.882Z,5.00
2019-03-03T15:46:42.898Z,5.78
2019-03-03T15:49:12.902Z,4.28
2019-03-03T15:51:43.118Z,4.70
2019-03-03T15:54:13.176Z,3.47
2019-03-03T15:56:43.072Z,3.20
2019-03-03T15:59:13.067Z,7.72
2019-03-03T16:01:42.774Z,3.20
2019-03-03T16:04:13.306Z,3.87
2019-03-03T16:06:43.665Z,4.62
2019-03-03T16:09:16.674Z,3.30
2019-03-03T16:11:46.307Z,3.47
2019-03-03T16:14:16.387Z,2.95
2019-03-03T16:16:46.019Z,4.58
2019-03-03T16:19:16.582Z,2.58
2019-03-03T16:21:46.140Z,4.08
2019-03-03T16:24:16.103Z,2.95
2019-03-03T16:26:45.831Z,3.22
2019-03-03T16:29:15.335Z,4.25
2019-03-03T16:31:44.936Z,3.35
2019-03-03T16:34:14.516Z,2.05
2019-03-03T16:36:44.058Z,2.80
2019-03-03T16:39:14.044Z,3.52
2019-03-03T16:41:43.581Z,3.02
2019-03-03T16:44:14.504Z,2.72
2019-03-03T16:46:44.041Z,4.12
2019-03-03T16:49:13.641Z,4.08
2019-03-03T16:51:43.289Z,2.90
2019-03-03T16:54:12.852Z,5.20
2019-03-03T16:56:42.360Z,15.32
2019-03-03T16:59:11.883Z,13.25
2019-03-03T17:01:41.529Z,13.53
2019-03-03T17:04:11.090Z,15.23
2019-03-03T17:06:40.587Z,10.53
2019-03-03T17:09:11.549Z,11.68
2019-03-03T17:11:41.060Z,7.42
2019-03-03T17:14:10.556Z,8.23
2019-03-03T17:16:40.204Z,8.75
2019-03-03T17:19:09.754Z,8.70
2019-03-03T17:21:39.239Z,7.12
2019-03-03T17:24:08.746Z,7.85
2019-03-03T17:26:38.318Z,4.45
2019-03-03T17:29:07.843Z,7.65
2019-03-03T17:31:37.379Z,6.40
2019-03-03T17:34:13.012Z,7.33
2019-03-03T17:36:38.229Z,7.30
2019-03-03T17:39:09.040Z,11.43
2019-03-03T17:41:39.166Z,13.55
2019-03-03T17:44:08.675Z,9.33
2019-03-03T17:46:38.201Z,9.23
2019-03-03T17:49:07.841Z,5.90
2019-03-03T17:51:38.687Z,7.72
2019-03-03T17:54:10.951Z,5.33
2019-03-03T17:56:40.516Z,7.25
2019-03-03T17:59:10.085Z,13.62
2019-03-03T18:01:39.742Z,4.10
2019-03-03T18:04:09.350Z,12.47
2019-03-03T18:06:39.154Z,10.45
2019-03-03T18:09:09.555Z,6.50
2019-03-03T18:11:39.198Z,5.42
2019-03-03T18:14:08.860Z,10.30
2019-03-03T18:16:38.448Z,6.05
2019-03-03T18:19:08.185Z,13.20
2019-03-03T18:21:37.707Z,20.52
2019-03-03T18:24:07.302Z,17.20
2019-03-03T18:26:36.845Z,24.80
2019-03-03T18:29:06.425Z,26.52
2019-03-03T18:31:35.977Z,25.40
2019-03-03T18:34:05.679Z,25.92
2019-03-03T18:36:35.218Z,24.82
2019-03-03T18:39:06.505Z,20.35
2019-03-03T18:41:36.117Z,18.67
2019-03-03T18:44:05.749Z,21.75
2019-03-03T18:46:35.480Z,16.65
2019-03-03T18:49:05.251Z,18.80
2019-03-03T18:51:34.833Z,16.90
2019-03-03T18:54:04.502Z,18.30
2019-03-03T18:56:34.093Z,14.38
2019-03-03T18:59:04.369Z,22.40
2019-03-03T19:01:33.964Z,38.42
2019-03-03T19:04:03.532Z,62.23
2019-03-03T19:06:34.923Z,129.10
2019-03-03T19:09:05.740Z,191.05
2019-03-03T19:11:35.599Z,318.17
2019-03-03T19:14:05.310Z,322.98
2019-03-03T19:16:34.877Z,366.85
2019-03-03T19:19:04.479Z,366.52
2019-03-03T19:21:33.997Z,341.08
2019-03-03T19:24:03.567Z,329.68
2019-03-03T19:26:33.093Z,328.98
2019-03-03T19:29:02.626Z,318.42
2019-03-03T19:31:32.257Z,306.93
2019-03-03T19:34:01.871Z,285.02
2019-03-03T19:36:31.683Z,282.35
2019-03-03T19:39:01.196Z,264.72
2019-03-03T19:41:30.822Z,246.82
2019-03-03T19:44:00.530Z,242.05
2019-03-03T19:46:30.087Z,235.80
2019-03-03T19:48:59.635Z,232.52
2019-03-03T19:51:29.251Z,230.30
2019-03-03T19:53:58.855Z,205.47
2019-03-03T19:56:28.464Z,208.68
2019-03-03T19:58:58.051Z,192.20
2019-03-03T20:01:27.603Z,179.53
2019-03-03T20:03:57.253Z,173.55
2019-03-03T20:06:26.819Z,169.40
2019-03-03T20:08:56.335Z,169.55
2019-03-03T20:11:25.950Z,160.88
2019-03-03T20:13:55.494Z,148.72
2019-03-03T20:16:25.020Z,142.35
2019-03-03T20:18:54.610Z,149.50
2019-03-03T20:21:24.203Z,137.75
2019-03-03T20:23:53.894Z,136.90
2019-03-03T20:26:23.492Z,127.60
2019-03-03T20:28:53.061Z,123.90
2019-03-03T20:31:22.635Z,114.62
2019-03-03T20:33:52.251Z,111.62
2019-03-03T20:36:21.854Z,108.20
2019-03-03T20:38:51.419Z,101.42
2019-03-03T20:41:21.008Z,99.37
2019-03-03T20:43:50.509Z,96.40
2019-03-03T20:46:20.258Z,89.17
2019-03-03T20:48:49.770Z,78.80
2019-03-03T20:51:19.345Z,90.87
2019-03-03T20:53:48.932Z,78.00
2019-03-03T20:56:18.516Z,77.92
2019-03-03T20:58:48.207Z,73.67
2019-03-03T21:01:17.765Z,62.67
2019-03-03T21:03:47.385Z,72.70
2019-03-03T21:06:17.006Z,68.47
2019-03-03T21:08:46.947Z,64.42
2019-03-03T21:11:16.496Z,64.90
2019-03-03T21:13:46.191Z,61.83
2019-03-03T21:16:16.138Z,53.28
2019-03-03T21:18:45.712Z,59.73
2019-03-03T21:21:15.281Z,50.33
2019-03-03T21:23:45.121Z,50.63
2019-03-03T21:26:14.890Z,50.73
2019-03-03T21:28:44.490Z,48.58
2019-03-03T21:31:14.145Z,43.45
2019-03-03T21:33:43.743Z,46.15
2019-03-03T21:36:13.296Z,45.00
2019-03-03T21:38:42.883Z,43.98
2019-03-03T21:41:12.465Z,41.65
2019-03-03T21:43:42.135Z,37.03
2019-03-03T21:46:11.863Z,39.10
2019-03-03T21:48:41.363Z,34.35
2019-03-03T21:51:10.907Z,34.80
2019-03-03T21:53:40.502Z,33.70
2019-03-03T21:56:10.045Z,32.73
2019-03-03T21:58:39.709Z,35.65
2019-03-03T22:01:09.290Z,29.52
2019-03-03T22:03:39.018Z,34.53
2019-03-03T22:06:08.572Z,32.45
2019-03-03T22:08:38.133Z,27.62
2019-03-03T22:11:07.632Z,28.05
2019-03-03T22:13:37.112Z,32.78
2019-03-03T22:16:06.674Z,29.42
2019-03-03T22:18:36.168Z,27.22
2019-03-03T22:21:05.684Z,28.45
2019-03-03T22:23:35.190Z,23.87
2019-03-03T22:26:04.709Z,25.32
2019-03-03T22:28:36.355Z,24.00
2019-03-03T22:31:05.436Z,21.93
2019-03-03T22:33:35.854Z,21.48
2019-03-03T22:36:05.407Z,21.40
2019-03-03T22:38:34.895Z,21.05
2019-03-03T22:41:04.556Z,19.25
2019-03-03T22:43:35.263Z,17.62
2019-03-03T22:46:04.898Z,19.20
2019-03-03T22:48:34.458Z,18.40
2019-03-03T22:51:03.954Z,15.83
2019-03-03T22:53:33.458Z,16.60
2019-03-03T22:56:03.039Z,16.82
2019-03-03T22:58:32.510Z,13.58
2019-03-03T23:01:09.023Z,17.15
2019-03-03T23:03:47.462Z,13.88
2019-03-03T23:07:07.583Z,13.78
2019-03-03T23:10:11.316Z,13.62
2019-03-03T23:12:56.032Z,12.47
2019-03-03T23:15:40.813Z,13.40
2019-03-03T23:18:29.842Z,13.08
2019-03-03T23:21:22.411Z,10.63
2019-03-03T23:24:35.919Z,11.95
2019-03-03T23:27:05.535Z,11.08
2019-03-03T23:29:35.056Z,12.58
2019-03-03T23:32:04.673Z,9.85
2019-03-03T23:34:34.229Z,10.10
2019-03-03T23:37:03.799Z,9.80
2019-03-03T23:39:33.317Z,9.23
2019-03-03T23:42:02.795Z,8.40
2019-03-03T23:44:32.506Z,8.83
2019-03-03T23:47:02.021Z,9.38
2019-03-03T23:49:31.529Z,8.83
2019-03-03T23:52:00.980Z,8.78
2019-03-03T23:54:30.517Z,8.15
2019-03-03T23:57:01.066Z,8.35
2019-03-03T23:59:30.552Z,6.50
